Airfield :
LOGIN :

Register | Disclaimer

   EN    FR    IT 

 










Legend :    VFR   Marginal VFR   IFR   Intensive IFR   Very Intensive IFR
Visi :
Ceiling :
>= 8 km
>= 3000ft
5 to 8 km
1000 to 3000 ft
1500m to 5 km
500 to 1000 ft
800 to 1500m
200 to 500 ft
< 800m
< 200 ft
Symbols :   Thunderstorms  Fog  Heavy snow  Heavy precipitations  Wind > 20 kt
SIGMETs :     Misc.  Thunderstorms  Icing  Turbulence  Mountain Waves  Volcanic Ashes






- Airport Elevation : 396 ft


LFOZ - Orléans St Denis

CURRENT METAR :
  • 172200Z AUTO 02002KT 1300 R23/1500N BR VV/// 03/03 Q1038

EXPIRED METARs :
  • 172130Z AUTO 05001KT 2100 BR BKN002 OVC010 03/03 Q1038
  • 172100Z AUTO 08004KT 1100 R23/1200U BCFG VV/// 03/03 Q1039
  • 172030Z AUTO 08003KT 0400 0350 R23/0375N FG VV/// 03/03 Q1039
  • 172000Z AUTO 08003KT 0800 R23/1100U FG FEW002 BKN030 03/02 Q1038
  • 171930Z AUTO 13001KT 3700 BR BKN028 04/03 Q1038
  • 171900Z AUTO 00000KT 9999 OVC024 05/04 Q1038

TAF N/A



MET'MAP, your aeronautical weather chart ! - Copyright ORBIFLY December 2007 - Disclaimer

ORBIFLY MET'MAP TEAM :

Programming & Development : Alexandra Zaïnal
Concept & original design : Baudouin d'Aumeries
Assistance for programming : Marc-Olivier Méhu
Technical & hardware support : Manuel Goepfert

Contact : metmap@orbifly.com




SOURCES & CREDITS :

   NOAA